Time;durP1;ratioP1;P1;durP2;ratioP2;P2;SDS_P1;SDS_P2;PMS_P1;PMS_P2;Temp;Humidity;BMP_temperature;BMP_pressure;BME280_temperature;BME280_humidity;BME280_pressure;Samples;Min_cycle;Max_cycle;Signal;HPM_P1;HPM_P2
2023/06/03 00:00:41;;;;;;;2.30;1.30;;;5.70;99.90;;;;;;4993965;28;20200;-92
2023/06/03 00:03:11;;;;;;;2.57;0.90;;;5.70;99.90;;;;;;4993832;28;20207;-92
2023/06/03 00:05:40;;;;;;;1.73;1.00;;;5.60;99.90;;;;;;4994197;28;21479;-92
2023/06/03 00:08:07;;;;;;;1.30;1.00;;;5.60;99.90;;;;;;4994619;28;20663;-93
2023/06/03 00:10:34;;;;;;;1.77;1.10;;;5.60;99.90;;;;;;4994716;28;20200;-92
2023/06/03 00:13:01;;;;;;;3.33;1.50;;;5.60;99.90;;;;;;4994703;28;20672;-93
2023/06/03 00:15:28;;;;;;;1.90;1.10;;;5.60;99.90;;;;;;4994123;28;20208;-92
2023/06/03 00:17:55;;;;;;;1.93;1.30;;;5.60;99.90;;;;;;4994082;28;20192;-92
2023/06/03 00:20:25;;;;;;;2.47;1.00;;;5.60;99.90;;;;;;4994077;28;20200;-92
2023/06/03 00:22:53;;;;;;;2.20;1.20;;;5.60;99.90;;;;;;4993981;28;20310;-93
2023/06/03 00:25:20;;;;;;;1.30;0.87;;;5.60;99.90;;;;;;4996767;28;20616;-93
2023/06/03 00:27:49;;;;;;;1.53;0.77;;;5.50;99.90;;;;;;5001967;28;20230;-92
2023/06/03 00:30:16;;;;;;;1.20;1.07;;;5.50;99.90;;;;;;5017339;28;20195;-92
2023/06/03 00:32:44;;;;;;;3.50;1.00;;;5.40;1.00;;;;;;5016801;28;20652;-92
2023/06/03 00:35:11;;;;;;;1.67;1.00;;;5.40;1.00;;;;;;5017668;28;20198;-91
2023/06/03 00:37:38;;;;;;;1.47;1.13;;;5.40;1.00;;;;;;5017146;28;20616;-92
2023/06/03 00:40:08;;;;;;;2.37;1.00;;;5.40;1.00;;;;;;5017497;28;20191;-92
2023/06/03 00:42:35;;;;;;;1.30;0.97;;;5.40;1.00;;;;;;5017011;28;20596;-93
2023/06/03 00:45:02;;;;;;;1.57;1.20;;;5.50;1.00;;;;;;5017282;28;20281;-92
2023/06/03 00:47:29;;;;;;;3.67;1.10;;;5.50;1.00;;;;;;5017419;28;20195;-92
2023/06/03 00:49:57;;;;;;;1.37;0.93;;;5.60;1.00;;;;;;5016958;28;20238;-92
2023/06/03 00:52:25;;;;;;;1.97;1.07;;;5.60;1.00;;;;;;5016914;28;20217;-92
2023/06/03 00:54:53;;;;;;;1.90;1.10;;;5.60;1.00;;;;;;5017600;28;20206;-92
2023/06/03 00:57:22;;;;;;;1.70;1.00;;;5.60;1.00;;;;;;5017027;28;20201;-92
2023/06/03 00:59:49;;;;;;;1.37;0.90;;;5.60;1.00;;;;;;5016656;28;20277;-92
2023/06/03 01:02:17;;;;;;;2.03;0.90;;;5.50;1.00;;;;;;5016374;28;20246;-91
2023/06/03 01:04:46;;;;;;;5.00;0.90;;;5.50;1.00;;;;;;5016758;28;21327;-92
2023/06/03 01:07:17;;;;;;;2.20;1.00;;;5.40;1.00;;;;;;5016468;28;20194;-93
2023/06/03 01:09:57;;;;;;;1.83;1.00;;;5.40;1.00;;;;;;5016852;28;20244;-92
2023/06/03 01:12:34;;;;;;;2.67;1.13;;;5.40;1.00;;;;;;5016529;28;20236;-92
2023/06/03 01:15:04;;;;;;;2.03;1.27;;;5.40;1.00;;;;;;5016709;28;20206;-92
2023/06/03 01:17:36;;;;;;;1.87;1.10;;;5.40;1.00;;;;;;5015839;28;20609;-92
2023/06/03 01:20:04;;;;;;;1.53;0.90;;;5.40;1.00;;;;;;5016484;28;20199;-92
2023/06/03 01:22:40;;;;;;;1.67;1.00;;;5.40;1.00;;;;;;5016836;28;20296;-92
2023/06/03 01:25:11;;;;;;;3.60;1.20;;;5.30;1.00;;;;;;5017089;28;20194;-91
2023/06/03 01:27:40;;;;;;;3.93;1.20;;;5.20;1.00;;;;;;5011559;28;20206;-92
2023/06/03 01:30:10;;;;;;;2.07;0.90;;;5.10;1.00;;;;;;4996761;28;20204;-92
2023/06/03 01:32:38;;;;;;;1.77;1.10;;;5.00;1.00;;;;;;4996952;28;20743;-92
2023/06/03 01:35:07;;;;;;;2.27;1.10;;;5.00;1.00;;;;;;4996820;28;20195;-92
2023/06/03 01:37:35;;;;;;;1.83;1.00;;;5.00;1.00;;;;;;4984880;28;20194;-91
2023/06/03 01:40:04;;;;;;;1.50;0.97;;;5.00;1.00;;;;;;4996938;28;20207;-92
2023/06/03 01:42:33;;;;;;;1.20;1.00;;;5.00;1.00;;;;;;4996706;28;20218;-91
2023/06/03 01:45:01;;;;;;;2.90;0.97;;;5.00;1.00;;;;;;4996735;28;20199;-92
2023/06/03 01:47:28;;;;;;;2.00;1.00;;;5.00;1.00;;;;;;4995782;28;20207;-91
2023/06/03 01:49:55;;;;;;;1.90;1.10;;;4.90;1.00;;;;;;4996604;28;20253;-92
2023/06/03 01:52:22;;;;;;;1.40;1.10;;;4.90;1.00;;;;;;4996575;28;20194;-92
2023/06/03 01:54:49;;;;;;;2.03;1.13;;;4.80;1.00;;;;;;4996771;28;20248;-91
2023/06/03 01:57:17;;;;;;;1.40;1.00;;;4.70;1.00;;;;;;4996537;28;20191;-92
2023/06/03 01:59:45;;;;;;;2.80;1.07;;;4.70;1.00;;;;;;4996518;28;20205;-92
2023/06/03 02:02:12;;;;;;;1.40;1.20;;;4.60;1.00;;;;;;4996279;28;20218;-92
2023/06/03 02:04:39;;;;;;;2.37;1.07;;;4.60;1.00;;;;;;4996953;28;20245;-92
2023/06/03 02:07:08;;;;;;;1.87;1.17;;;4.50;1.00;;;;;;4996717;28;20241;-92
2023/06/03 02:09:35;;;;;;;1.97;1.10;;;4.50;1.00;;;;;;4996024;28;20195;-92
2023/06/03 02:12:02;;;;;;;2.23;0.90;;;4.50;1.00;;;;;;4995960;28;20186;-93
2023/06/03 02:14:31;;;;;;;1.57;0.90;;;4.50;1.00;;;;;;4996085;28;20203;-92
2023/06/03 02:17:00;;;;;;;3.53;1.20;;;4.50;1.00;;;;;;4996013;28;20203;-92
2023/06/03 02:19:28;;;;;;;1.50;1.17;;;4.50;1.00;;;;;;4994882;28;20289;-91
2023/06/03 02:21:57;;;;;;;1.70;1.20;;;4.50;1.00;;;;;;4996301;28;20233;-91
2023/06/03 02:24:28;;;;;;;2.10;1.10;;;4.50;1.00;;;;;;4995689;28;20617;-92
2023/06/03 02:27:00;;;;;;;3.27;1.10;;;4.50;1.00;;;;;;4995381;28;20289;-91
2023/06/03 02:29:27;;;;;;;1.93;1.30;;;4.60;1.00;;;;;;4995431;28;20234;-91
2023/06/03 02:31:56;;;;;;;2.80;1.30;;;4.60;9.80;;;;;;4995567;28;20194;-92
2023/06/03 02:34:24;;;;;;;2.73;1.20;;;4.60;37.30;;;;;;4995644;28;20716;-92
2023/06/03 02:36:52;;;;;;;1.93;1.10;;;4.60;70.50;;;;;;4995324;28;20194;-92
2023/06/03 02:39:19;;;;;;;2.00;1.23;;;4.70;71.10;;;;;;4995249;28;20204;-91
2023/06/03 02:41:48;;;;;;;2.23;1.20;;;4.70;87.00;;;;;;4995092;28;20213;-91
2023/06/03 02:44:16;;;;;;;1.70;1.10;;;4.70;86.70;;;;;;4995183;28;20226;-92
2023/06/03 02:46:43;;;;;;;2.13;1.40;;;4.80;91.00;;;;;;4994458;28;20739;-91
2023/06/03 02:49:10;;;;;;;2.90;1.20;;;4.80;98.70;;;;;;4995244;28;20202;-91
2023/06/03 02:51:39;;;;;;;1.77;1.20;;;4.80;99.90;;;;;;4995411;28;20199;-92
2023/06/03 02:54:07;;;;;;;3.50;1.20;;;4.80;99.90;;;;;;4994882;28;20198;-92
2023/06/03 02:56:34;;;;;;;5.53;1.40;;;4.80;99.90;;;;;;4995198;28;20249;-92
2023/06/03 02:59:01;;;;;;;3.40;1.30;;;4.90;99.90;;;;;;4995734;28;20199;-92
2023/06/03 03:01:29;;;;;;;1.60;1.13;;;4.90;99.90;;;;;;4995340;28;20198;-91
2023/06/03 03:03:56;;;;;;;2.53;1.20;;;4.90;99.90;;;;;;4995096;28;20751;-92
2023/06/03 03:06:24;;;;;;;2.43;1.10;;;4.90;99.90;;;;;;4995171;28;20199;-91
2023/06/03 03:08:53;;;;;;;1.33;1.00;;;4.90;99.90;;;;;;4994452;28;20646;-91
2023/06/03 03:11:20;;;;;;;2.33;1.37;;;5.00;99.90;;;;;;4994965;28;20665;-93
2023/06/03 03:13:48;;;;;;;2.03;1.30;;;4.90;99.90;;;;;;4995146;28;20253;-91
2023/06/03 03:16:17;;;;;;;2.47;1.40;;;4.90;99.90;;;;;;4994871;28;20190;-92
2023/06/03 03:18:44;;;;;;;2.83;1.67;;;4.90;99.90;;;;;;4994528;28;20253;-92
2023/06/03 03:21:11;;;;;;;7.23;1.23;;;4.90;99.90;;;;;;4994687;28;20546;-92
2023/06/03 03:23:38;;;;;;;4.17;1.40;;;4.90;99.90;;;;;;4994846;28;20241;-92
2023/06/03 03:26:08;;;;;;;3.27;1.30;;;4.90;99.90;;;;;;4994310;28;20579;-91
2023/06/03 03:28:36;;;;;;;2.63;1.33;;;4.90;99.90;;;;;;4978872;28;20257;-92
2023/06/03 03:31:04;;;;;;;2.30;1.10;;;4.90;99.90;;;;;;4994931;28;20191;-92
2023/06/03 03:33:34;;;;;;;1.80;1.20;;;4.90;99.90;;;;;;4995147;28;20198;-91
2023/06/03 03:36:08;;;;;;;2.07;1.20;;;4.90;99.90;;;;;;4994046;28;20194;-92
2023/06/03 03:38:37;;;;;;;5.37;1.30;;;5.00;99.90;;;;;;4994526;28;20194;-91
2023/06/03 03:41:06;;;;;;;3.57;1.47;;;5.10;99.90;;;;;;4993686;28;20635;-91
2023/06/03 03:43:33;;;;;;;2.40;1.30;;;5.20;99.90;;;;;;4994029;28;20215;-92
2023/06/03 03:46:00;;;;;;;2.23;1.20;;;5.30;99.90;;;;;;4994754;28;20696;-92
2023/06/03 03:48:30;;;;;;;4.30;1.53;;;5.40;99.90;;;;;;4994059;28;20617;-92
2023/06/03 03:50:57;;;;;;;3.07;1.23;;;5.40;99.90;;;;;;4994104;28;20199;-93
2023/06/03 03:53:28;;;;;;;1.93;1.20;;;5.50;99.90;;;;;;4994418;28;20194;-92
2023/06/03 03:55:57;;;;;;;3.00;1.30;;;5.80;1.00;;;;;;4994258;28;20273;-93
2023/06/03 03:58:27;;;;;;;2.93;1.30;;;6.60;1.00;;;;;;4993911;28;20224;-91
2023/06/03 04:00:57;;;;;;;3.00;1.20;;;7.60;1.00;;;;;;4994976;28;20230;-93
2023/06/03 04:03:25;;;;;;;4.13;1.47;;;8.50;99.90;;;;;;4994448;28;20226;-92
2023/06/03 04:05:52;;;;;;;3.37;1.97;;;9.30;99.90;;;;;;4994316;28;20222;-92
2023/06/03 04:08:40;;;;;;;1.73;1.13;;;10.00;1.00;;;;;;4993809;28;20609;-91
2023/06/03 04:11:09;;;;;;;2.13;1.00;;;10.60;1.00;;;;;;4984937;28;20231;-93
2023/06/03 04:13:40;;;;;;;1.90;1.20;;;11.20;1.00;;;;;;4983490;28;20281;-93
2023/06/03 04:16:12;;;;;;;3.27;1.10;;;11.80;1.00;;;;;;4990759;28;20204;-93
2023/06/03 04:18:41;;;;;;;4.43;1.30;;;12.40;1.00;;;;;;4994274;28;20197;-93
2023/06/03 04:21:14;;;;;;;3.93;1.20;;;13.00;1.00;;;;;;4994278;28;20206;-90
2023/06/03 04:23:41;;;;;;;5.63;1.40;;;13.50;1.00;;;;;;4993731;28;20211;-91
2023/06/03 04:26:09;;;;;;;1.73;1.07;;;13.90;1.00;;;;;;4994264;28;20200;-91
2023/06/03 04:28:39;;;;;;;1.43;0.90;;;14.30;1.00;;;;;;5004442;28;20227;-91
2023/06/03 04:31:06;;;;;;;6.53;1.00;;;14.60;99.90;;;;;;5010492;28;20254;-91
2023/06/03 04:33:34;;;;;;;2.87;1.13;;;14.90;99.90;;;;;;5013906;28;20271;-91
2023/06/03 04:36:01;;;;;;;2.57;0.73;;;15.20;99.90;;;;;;5014406;28;20256;-91
2023/06/03 04:38:28;;;;;;;1.23;0.93;;;15.30;99.90;;;;;;5013964;28;20244;-91
2023/06/03 04:40:55;;;;;;;3.20;0.90;;;15.50;99.90;;;;;;5013645;28;20557;-91
2023/06/03 04:43:24;;;;;;;1.53;0.87;;;15.80;99.90;;;;;;5013693;28;20272;-91
2023/06/03 04:45:54;;;;;;;4.00;0.90;;;16.00;99.90;;;;;;5012394;28;20202;-92
2023/06/03 04:48:22;;;;;;;2.38;0.90;;;16.20;99.90;;;;;;5013613;28;20671;-91
2023/06/03 04:50:49;;;;;;;2.65;0.80;;;16.40;99.90;;;;;;5013948;28;20208;-91
2023/06/03 04:53:16;;;;;;;2.05;0.80;;;16.60;99.90;;;;;;5013475;28;20202;-91
2023/06/03 04:55:44;;;;;;;1.60;0.70;;;16.70;99.90;;;;;;5013266;28;20257;-91
2023/06/03 04:58:12;;;;;;;1.45;0.73;;;16.60;99.90;;;;;;5013834;28;20212;-91
2023/06/03 05:00:40;;;;;;;2.65;0.80;;;16.60;99.90;;;;;;5014162;28;20244;-91
2023/06/03 05:03:09;;;;;;;2.78;0.80;;;16.30;99.90;;;;;;5013451;28;20221;-92
2023/06/03 05:05:41;;;;;;;1.75;0.80;;;15.90;99.90;;;;;;5013044;28;20201;-92
2023/06/03 05:08:09;;;;;;;1.50;0.90;;;15.30;99.90;;;;;;5013290;28;20198;-91
2023/06/03 05:10:36;;;;;;;3.10;0.73;;;14.80;99.90;;;;;;5014943;28;20250;-92
2023/06/03 05:13:04;;;;;;;1.57;0.80;;;14.30;99.90;;;;;;5017116;28;20186;-94
2023/06/03 05:15:33;;;;;;;1.17;0.60;;;13.80;99.90;;;;;;5016288;28;20678;-94
2023/06/03 05:18:01;;;;;;;1.50;0.70;;;13.50;99.90;;;;;;5016315;28;20196;-93
2023/06/03 05:20:29;;;;;;;1.20;0.70;;;13.20;99.90;;;;;;5016705;28;20278;-93
2023/06/03 05:22:56;;;;;;;2.27;0.80;;;12.90;99.90;;;;;;5010792;28;20238;-93
2023/06/03 05:25:23;;;;;;;2.23;0.80;;;12.70;99.90;;;;;;5016787;28;20195;-93
2023/06/03 05:27:50;;;;;;;2.77;0.60;;;12.50;99.90;;;;;;5007098;28;20779;-94
2023/06/03 05:30:17;;;;;;;2.07;0.90;;;12.40;99.90;;;;;;4997309;28;20658;-94
2023/06/03 05:32:45;;;;;;;1.10;0.70;;;12.30;99.90;;;;;;4996825;28;20610;-94
2023/06/03 05:35:11;;;;;;;1.33;0.70;;;12.30;99.90;;;;;;4997243;28;20628;-94
2023/06/03 05:37:40;;;;;;;0.93;0.70;;;12.20;99.90;;;;;;4987389;28;20724;-93
2023/06/03 05:40:08;;;;;;;1.30;0.67;;;12.20;99.90;;;;;;4993168;28;20199;-94
2023/06/03 05:42:35;;;;;;;1.00;0.70;;;12.10;99.90;;;;;;4996448;28;20199;-93
2023/06/03 05:45:02;;;;;;;1.53;0.80;;;12.10;99.90;;;;;;4996735;28;20335;-94
2023/06/03 05:47:29;;;;;;;3.20;0.90;;;12.10;99.90;;;;;;4996580;28;20206;-93
2023/06/03 05:49:57;;;;;;;1.17;0.63;;;12.10;99.90;;;;;;4996584;28;20246;-93
2023/06/03 05:52:24;;;;;;;1.37;0.90;;;12.10;99.90;;;;;;4996704;28;20201;-93
2023/06/03 05:54:53;;;;;;;3.20;0.80;;;12.00;99.90;;;;;;4997386;28;20282;-93
2023/06/03 05:57:20;;;;;;;1.27;0.77;;;12.10;99.90;;;;;;4996374;28;20203;-93
2023/06/03 05:59:47;;;;;;;1.07;0.70;;;12.10;99.90;;;;;;4996241;28;20201;-94
2023/06/03 06:02:14;;;;;;;1.57;0.80;;;12.20;99.90;;;;;;4996304;28;20198;-93
2023/06/03 06:04:41;;;;;;;1.07;0.80;;;12.20;99.90;;;;;;4995688;28;20221;-94
2023/06/03 06:07:08;;;;;;;1.90;0.80;;;12.40;99.90;;;;;;4996600;28;20240;-93
2023/06/03 06:09:35;;;;;;;2.70;0.70;;;12.40;99.90;;;;;;4996432;28;20203;-93
2023/06/03 06:12:03;;;;;;;1.20;0.70;;;12.50;99.90;;;;;;4996075;28;20262;-93
2023/06/03 06:14:30;;;;;;;0.77;0.60;;;12.50;99.90;;;;;;4996374;28;20270;-93
2023/06/03 06:16:57;;;;;;;1.77;0.53;;;12.60;99.90;;;;;;4995568;28;20195;-93
2023/06/03 06:19:24;;;;;;;1.27;0.60;;;12.70;99.90;;;;;;4995830;28;20199;-92
2023/06/03 06:21:51;;;;;;;0.90;0.50;;;12.70;99.90;;;;;;4993321;28;20193;-92
2023/06/03 06:24:18;;;;;;;0.87;0.60;;;12.80;99.90;;;;;;4995846;28;20269;-93
2023/06/03 06:26:45;;;;;;;0.70;0.60;;;12.90;99.90;;;;;;4994620;28;20225;-93
2023/06/03 06:29:14;;;;;;;0.90;0.57;;;13.00;99.90;;;;;;5010700;28;20228;-93
2023/06/03 06:31:41;;;;;;;1.23;0.73;;;13.00;99.90;;;;;;5015392;28;20286;-93
2023/06/03 06:34:10;;;;;;;3.00;0.97;;;13.10;99.90;;;;;;5015707;28;20206;-94
2023/06/03 06:36:43;;;;;;;1.10;0.63;;;13.20;99.90;;;;;;5015175;28;20199;-93
2023/06/03 06:39:46;;;;;;;0.73;0.43;;;13.30;99.90;;;;;;5015439;28;20673;-94
2023/06/03 06:42:15;;;;;;;0.87;0.47;;;13.30;99.90;;;;;;5015099;28;20285;-94
2023/06/03 06:44:47;;;;;;;1.40;0.67;;;13.40;99.90;;;;;;5015207;28;20211;-94
2023/06/03 06:47:19;;;;;;;1.63;0.60;;;13.50;99.90;;;;;;5014515;28;20673;-94
2023/06/03 06:49:46;;;;;;;1.10;0.60;;;13.60;99.90;;;;;;5015137;28;20738;-94
2023/06/03 06:52:13;;;;;;;1.23;0.70;;;13.70;99.90;;;;;;5015466;28;20254;-93
2023/06/03 06:54:40;;;;;;;2.13;0.57;;;13.80;99.90;;;;;;5013917;28;20232;-92
2023/06/03 06:57:08;;;;;;;0.80;0.50;;;13.90;99.90;;;;;;5014592;28;20203;-93
2023/06/03 06:59:35;;;;;;;0.83;0.60;;;14.00;99.90;;;;;;5014976;28;20265;-93
2023/06/03 07:02:03;;;;;;;1.20;0.70;;;14.00;99.90;;;;;;5014839;28;20209;-94
2023/06/03 07:04:30;;;;;;;0.80;0.50;;;14.10;99.90;;;;;;5014471;28;20786;-93
2023/06/03 07:06:57;;;;;;;1.33;0.50;;;14.20;99.90;;;;;;5015162;28;20196;-94
2023/06/03 07:09:24;;;;;;;0.57;0.50;;;14.20;99.90;;;;;;5014567;28;20259;-93
2023/06/03 07:11:51;;;;;;;1.20;0.60;;;14.30;99.90;;;;;;5014596;28;20225;-94
2023/06/03 07:14:18;;;;;;;1.43;0.60;;;14.30;99.90;;;;;;5014536;28;20256;-93
2023/06/03 07:16:46;;;;;;;0.80;0.60;;;14.40;99.90;;;;;;5014411;28;21758;-93
2023/06/03 07:19:15;;;;;;;0.80;0.60;;;14.50;99.90;;;;;;5014713;28;20199;-93
2023/06/03 07:21:41;;;;;;;1.27;0.60;;;14.50;99.90;;;;;;5014819;28;20618;-93
2023/06/03 07:24:12;;;;;;;2.03;0.60;;;14.60;99.90;;;;;;5014295;28;20271;-94
2023/06/03 07:26:40;;;;;;;0.50;0.50;;;14.70;99.90;;;;;;5014644;28;20236;-94
2023/06/03 07:29:07;;;;;;;2.10;0.80;;;14.70;99.90;;;;;;4999810;28;20220;-95
2023/06/03 07:31:36;;;;;;;1.70;0.60;;;14.80;99.90;;;;;;4994369;28;20202;-93
2023/06/03 07:34:04;;;;;;;2.90;0.57;;;14.80;99.90;;;;;;4994610;28;20288;-94
2023/06/03 07:36:34;;;;;;;1.60;0.60;;;14.90;99.90;;;;;;4994961;28;20234;-94
2023/06/03 07:39:04;;;;;;;0.60;0.60;;;14.90;99.90;;;;;;4994795;28;20202;-94
2023/06/03 07:41:41;;;;;;;1.27;0.50;;;15.00;99.90;;;;;;4994439;28;20637;-93
2023/06/03 07:44:10;;;;;;;1.30;0.50;;;15.10;99.90;;;;;;4993830;28;20228;-93
2023/06/03 07:46:40;;;;;;;2.30;0.70;;;15.10;99.90;;;;;;4994451;28;21631;-94
2023/06/03 07:49:12;;;;;;;0.60;0.50;;;15.20;99.90;;;;;;4991121;28;20208;-93
2023/06/03 07:51:46;;;;;;;1.23;0.70;;;15.30;99.90;;;;;;4994004;28;20256;-93
2023/06/03 07:54:13;;;;;;;0.67;0.50;;;15.40;99.90;;;;;;4994051;28;20627;-93
2023/06/03 07:56:41;;;;;;;1.63;0.70;;;15.60;99.90;;;;;;4994298;28;20204;-93
2023/06/03 07:59:10;;;;;;;0.95;0.60;;;15.60;99.90;;;;;;4994016;28;20212;-92
2023/06/03 08:01:37;;;;;;;2.35;0.60;;;15.80;99.90;;;;;;4994856;28;20192;-92
2023/06/03 08:04:08;;;;;;;1.30;0.60;;;15.90;99.90;;;;;;4994385;28;20229;-94
2023/06/03 08:06:37;;;;;;;0.80;0.60;;;15.90;99.90;;;;;;4994368;28;20198;-92
2023/06/03 08:09:06;;;;;;;1.13;0.40;;;15.90;99.90;;;;;;4994304;28;20221;-94
2023/06/03 08:11:37;;;;;;;1.02;0.50;;;16.00;99.90;;;;;;4993786;28;20205;-93
2023/06/03 08:14:04;;;;;;;1.30;0.60;;;16.00;99.90;;;;;;4993792;28;20234;-93
2023/06/03 08:16:36;;;;;;;1.73;0.60;;;16.10;99.90;;;;;;4993908;28;20199;-93
2023/06/03 08:19:06;;;;;;;2.00;0.60;;;16.10;99.90;;;;;;4994455;28;20566;-93
2023/06/03 08:21:34;;;;;;;1.13;0.70;;;16.10;99.90;;;;;;4993412;28;20217;-92
2023/06/03 08:24:01;;;;;;;6.30;1.00;;;16.20;99.30;;;;;;4993088;28;20710;-92
2023/06/03 08:26:29;;;;;;;1.15;0.57;;;16.20;97.80;;;;;;4993518;28;20686;-93
2023/06/03 08:28:58;;;;;;;2.05;0.65;;;16.20;97.60;;;;;;5002501;28;20311;-92
2023/06/03 08:31:25;;;;;;;0.88;0.60;;;16.40;97.60;;;;;;4993252;28;20197;-90
2023/06/03 08:33:52;;;;;;;1.42;0.88;;;16.40;96.10;;;;;;4990609;28;20627;-90
2023/06/03 08:36:19;;;;;;;1.63;0.63;;;16.40;95.50;;;;;;4992695;28;20206;-90
2023/06/03 08:38:46;;;;;;;3.83;0.68;;;16.40;94.70;;;;;;4992289;28;20195;-89
2023/06/03 08:41:13;;;;;;;1.48;0.80;;;16.50;94.40;;;;;;4992434;28;20203;-89
2023/06/03 08:43:48;;;;;;;1.52;0.70;;;16.60;94.30;;;;;;4987841;28;20700;-90
2023/06/03 08:46:23;;;;;;;1.05;0.63;;;16.60;93.60;;;;;;4991502;28;20674;-89
2023/06/03 08:48:57;;;;;;;1.35;0.50;;;16.70;93.50;;;;;;4997212;28;20634;-89
2023/06/03 08:51:25;;;;;;;4.88;0.80;;;16.80;93.80;;;;;;4996187;28;20315;-89
2023/06/03 08:53:53;;;;;;;1.08;0.70;;;17.00;92.80;;;;;;4995963;28;20735;-88
2023/06/03 08:56:21;;;;;;;1.50;0.60;;;17.00;91.90;;;;;;4995688;28;20253;-89
2023/06/03 08:58:55;;;;;;;1.48;0.80;;;17.10;89.20;;;;;;4994290;28;20199;-90
2023/06/03 09:01:28;;;;;;;1.23;0.68;;;17.10;86.70;;;;;;4993841;28;20219;-91
2023/06/03 09:03:56;;;;;;;2.92;0.60;;;17.00;82.00;;;;;;4994854;28;20311;-90
2023/06/03 09:06:23;;;;;;;2.15;0.65;;;16.90;80.30;;;;;;4996096;28;20668;-91
2023/06/03 09:08:51;;;;;;;3.03;0.70;;;16.90;78.00;;;;;;4995755;28;20191;-92
2023/06/03 09:11:19;;;;;;;1.45;0.70;;;16.90;75.60;;;;;;4996040;28;20282;-91
2023/06/03 09:13:47;;;;;;;1.88;0.90;;;16.90;71.90;;;;;;4995787;28;20195;-91
2023/06/03 09:16:15;;;;;;;2.20;0.68;;;16.80;65.50;;;;;;4996695;28;20196;-92
2023/06/03 09:18:43;;;;;;;2.28;0.73;;;16.70;63.80;;;;;;4995992;28;20245;-94
2023/06/03 09:21:11;;;;;;;2.22;0.93;;;16.70;63.20;;;;;;4996549;28;20250;-89
2023/06/03 09:23:40;;;;;;;2.45;0.68;;;16.80;89.90;;;;;;4995689;28;20222;-89
2023/06/03 09:26:07;;;;;;;1.23;0.60;;;16.80;58.70;;;;;;4995175;28;20230;-90
2023/06/03 09:28:35;;;;;;;1.10;0.70;;;16.80;54.10;;;;;;5004818;28;20225;-91
2023/06/03 09:31:02;;;;;;;1.23;0.85;;;16.70;52.70;;;;;;5015825;28;20194;-92
2023/06/03 09:33:31;;;;;;;1.48;0.73;;;16.80;52.40;;;;;;5015889;28;20267;-90
2023/06/03 09:36:11;;;;;;;3.65;0.70;;;16.80;48.90;;;;;;5015660;28;20191;-90
2023/06/03 09:38:48;;;;;;;1.85;0.70;;;16.90;48.90;;;;;;5016273;28;20209;-91
2023/06/03 09:41:16;;;;;;;0.95;0.60;;;16.90;49.10;;;;;;5015345;28;20228;-92
2023/06/03 09:43:54;;;;;;;2.28;0.68;;;17.10;47.50;;;;;;5015959;28;20281;-92
2023/06/03 09:46:21;;;;;;;0.68;0.60;;;17.20;48.40;;;;;;5016171;28;20240;-92
2023/06/03 09:48:49;;;;;;;3.03;0.70;;;17.30;42.50;;;;;;5015874;28;20194;-92
2023/06/03 09:51:16;;;;;;;0.85;0.50;;;17.40;43.30;;;;;;5015203;28;20198;-93
2023/06/03 09:53:44;;;;;;;1.45;0.77;;;17.50;42.70;;;;;;5009416;28;20573;-91
2023/06/03 09:56:25;;;;;;;1.02;0.60;;;17.50;38.30;;;;;;5016099;28;20259;-92
2023/06/03 09:58:54;;;;;;;0.90;0.73;;;17.50;37.80;;;;;;5013793;28;20201;-90
2023/06/03 10:01:32;;;;;;;0.60;0.40;;;17.50;35.20;;;;;;5015619;28;20194;-91
2023/06/03 10:04:00;;;;;;;0.80;0.65;;;17.50;35.00;;;;;;5014242;28;20190;-94
2023/06/03 10:06:27;;;;;;;1.42;0.65;;;17.60;33.80;;;;;;5014583;28;20237;-93
2023/06/03 10:08:54;;;;;;;1.17;0.70;;;17.60;29.80;;;;;;5016511;28;20198;-94
2023/06/03 10:11:23;;;;;;;0.68;0.57;;;17.70;28.30;;;;;;5016058;28;20198;-95
2023/06/03 10:14:04;;;;;;;1.17;0.50;;;17.70;28.50;;;;;;5015719;28;20218;-93
2023/06/03 10:16:31;;;;;;;1.13;0.93;;;17.70;25.60;;;;;;5015448;28;20202;-92
2023/06/03 10:18:59;;;;;;;6.78;0.70;;;17.70;20.00;;;;;;5015648;28;20195;-92
2023/06/03 10:21:30;;;;;;;5.15;0.93;;;17.70;18.60;;;;;;5014930;28;20743;-92
2023/06/03 10:24:00;;;;;;;1.58;0.60;;;17.80;17.20;;;;;;5014826;28;20225;-92
2023/06/03 10:26:27;;;;;;;0.77;0.50;;;17.80;15.90;;;;;;5014716;28;20198;-95
2023/06/03 10:28:55;;;;;;;0.82;0.52;;;17.80;10.70;;;;;;5003129;28;20277;-94
2023/06/03 10:31:24;;;;;;;0.60;0.40;;;17.80;8.40;;;;;;4995754;28;20310;-91
2023/06/03 10:33:52;;;;;;;0.63;0.43;;;17.80;5.80;;;;;;4991630;28;20198;-91
2023/06/03 10:36:24;;;;;;;1.23;0.60;;;17.80;5.40;;;;;;4987610;28;20199;-91
2023/06/03 10:38:53;;;;;;;1.70;0.68;;;17.80;6.20;;;;;;4991733;28;20199;-90
2023/06/03 10:41:20;;;;;;;0.80;0.57;;;17.80;6.20;;;;;;4993311;28;20207;-90
2023/06/03 10:43:47;;;;;;;0.55;0.50;;;17.90;4.30;;;;;;4993088;28;20672;-91
2023/06/03 10:46:16;;;;;;;0.88;0.50;;;18.00;2.70;;;;;;4994001;28;20219;-90
2023/06/03 10:48:47;;;;;;;1.63;0.55;;;18.00;4.50;;;;;;4991941;28;20195;-90
2023/06/03 10:51:33;;;;;;;1.80;0.50;;;18.10;4.20;;;;;;4992628;28;20693;-89
2023/06/03 10:54:20;;;;;;;0.68;0.60;;;18.20;2.30;;;;;;4993391;28;20203;-91
2023/06/03 10:56:51;;;;;;;0.98;0.60;;;18.20;1.00;;;;;;4983503;28;20251;-90
2023/06/03 10:59:23;;;;;;;0.60;0.50;;;18.30;1.80;;;;;;4992515;28;20290;-92
2023/06/03 11:01:58;;;;;;;0.52;0.40;;;18.40;1.00;;;;;;4991341;28;20270;-91
2023/06/03 11:04:27;;;;;;;1.02;0.57;;;18.60;1.10;;;;;;4993637;28;20318;-91
2023/06/03 11:06:56;;;;;;;0.80;0.50;;;18.90;2.40;;;;;;4992298;28;20199;-91
2023/06/03 11:09:34;;;;;;;1.08;0.50;;;19.10;1.80;;;;;;4990183;28;20573;-91
2023/06/03 11:12:07;;;;;;;0.70;0.45;;;19.20;1.30;;;;;;4990862;28;20202;-92
2023/06/03 11:14:54;;;;;;;1.95;0.60;;;19.30;1.00;;;;;;4991192;28;20204;-91
2023/06/03 11:17:26;;;;;;;0.70;0.50;;;19.30;1.00;;;;;;4979633;28;20226;-90
2023/06/03 11:19:55;;;;;;;1.10;0.60;;;19.20;1.00;;;;;;4989609;28;20207;-92
2023/06/03 11:22:43;;;;;;;1.10;0.70;;;19.10;5.00;;;;;;4993587;28;20258;-91
2023/06/03 11:25:30;;;;;;;0.70;0.50;;;19.00;1.00;;;;;;4986985;28;20693;-91
2023/06/03 11:28:36;;;;;;;1.13;0.50;;;19.10;1.00;;;;;;4992864;28;20223;-92
2023/06/03 11:31:05;;;;;;;0.90;0.50;;;19.10;1.00;;;;;;4993780;28;20286;-91
2023/06/03 11:33:32;;;;;;;1.33;0.50;;;19.20;1.00;;;;;;4992675;28;20661;-92
2023/06/03 11:36:19;;;;;;;1.05;0.30;;;19.20;1.00;;;;;;4990752;28;20245;-91
2023/06/03 11:39:01;;;;;;;1.05;0.47;;;19.20;1.00;;;;;;4990635;28;20723;-91
2023/06/03 11:42:06;;;;;;;0.70;0.50;;;19.10;1.00;;;;;;4981952;28;20198;-91
2023/06/03 11:44:33;;;;;;;0.70;0.47;;;19.10;1.00;;;;;;4992310;28;20223;-91
2023/06/03 11:47:00;;;;;;;1.08;0.50;;;19.10;1.00;;;;;;4990379;28;20199;-91
2023/06/03 11:49:27;;;;;;;0.75;0.60;;;19.20;1.00;;;;;;4986015;28;20198;-92
2023/06/03 11:51:59;;;;;;;0.85;0.50;;;19.20;1.00;;;;;;4992389;28;20199;-92
2023/06/03 11:54:27;;;;;;;1.85;0.60;;;19.20;1.00;;;;;;4994451;28;20230;-91
2023/06/03 11:56:56;;;;;;;0.82;0.40;;;19.40;1.00;;;;;;4992598;28;20194;-90
2023/06/03 11:59:30;;;;;;;0.75;0.50;;;19.50;7.50;;;;;;4984595;28;20209;-91
2023/06/03 12:01:59;;;;;;;0.80;0.50;;;19.50;1.00;;;;;;4988873;28;20204;-91
2023/06/03 12:04:26;;;;;;;0.30;0.30;;;19.40;1.00;;;;;;4989827;28;20250;-92
2023/06/03 12:06:54;;;;;;;0.35;0.30;;;19.50;1.00;;;;;;4993414;28;20202;-91
2023/06/03 12:09:22;;;;;;;0.60;0.32;;;19.40;1.00;;;;;;4992030;28;20571;-91
2023/06/03 12:11:50;;;;;;;1.30;0.65;;;19.40;5.40;;;;;;4993726;28;20199;-94
2023/06/03 12:14:25;;;;;;;1.05;0.50;;;19.40;1.00;;;;;;4993981;28;20199;-90
2023/06/03 12:16:53;;;;;;;3.22;0.75;;;19.40;1.00;;;;;;4978888;28;20191;-93
2023/06/03 12:19:20;;;;;;;1.30;0.60;;;19.40;1.00;;;;;;4994106;28;20619;-93
2023/06/03 12:21:56;;;;;;;1.48;0.60;;;19.30;1.00;;;;;;4997514;28;20251;-92
2023/06/03 12:24:29;;;;;;;0.65;0.45;;;19.40;1.00;;;;;;4997606;28;20631;-94
2023/06/03 12:26:58;;;;;;;0.73;0.47;;;19.40;1.00;;;;;;4998405;28;20265;-93
2023/06/03 12:29:25;;;;;;;1.75;0.38;;;19.30;1.00;;;;;;5014450;28;20242;-93
2023/06/03 12:31:59;;;;;;;0.80;0.40;;;19.20;1.00;;;;;;5017438;28;20245;-92
2023/06/03 12:34:31;;;;;;;0.98;0.50;;;19.30;1.00;;;;;;5016604;28;20208;-93
2023/06/03 12:36:59;;;;;;;2.15;0.52;;;19.40;1.00;;;;;;5016042;28;20225;-92
2023/06/03 12:39:43;;;;;;;1.13;0.60;;;19.60;1.00;;;;;;5017208;28;20208;-93
2023/06/03 12:42:12;;;;;;;2.15;0.57;;;19.80;1.00;;;;;;5017170;28;20194;-93
2023/06/03 12:44:49;;;;;;;2.00;0.47;;;19.90;1.00;;;;;;5015103;28;20261;-92
2023/06/03 12:47:18;;;;;;;1.00;0.50;;;20.00;1.00;;;;;;5015563;28;20203;-91
2023/06/03 12:49:46;;;;;;;1.10;0.60;;;20.20;1.00;;;;;;5012150;28;20241;-92
2023/06/03 12:52:18;;;;;;;1.08;0.73;;;20.30;1.00;;;;;;5007191;28;20257;-91
2023/06/03 12:54:47;;;;;;;0.80;0.57;;;20.70;1.00;;;;;;5008232;28;20198;-92
2023/06/03 12:57:16;;;;;;;3.22;0.50;;;20.70;1.00;;;;;;5007828;28;20199;-91
2023/06/03 13:00:09;;;;;;;1.48;0.70;;;20.90;1.00;;;;;;5009072;28;20194;-91
2023/06/03 13:02:37;;;;;;;1.48;0.65;;;21.00;1.00;;;;;;5010697;28;20295;-92
2023/06/03 13:05:04;;;;;;;0.65;0.50;;;21.20;1.00;;;;;;5006679;28;20257;-92